Time;durP1;ratioP1;P1;durP2;ratioP2;P2;SDS_P1;SDS_P2;PMS_P1;PMS_P2;Temp;Humidity;BMP_temperature;BMP_pressure;BME280_temperature;BME280_humidity;BME280_pressure;Samples;Min_cycle;Max_cycle;Signal;HPM_P1;HPM_P2
2022/01/18 00:01:50;;;;;;;33.10;9.15;;;;;;;11.66;60.32;103675.59;5053878;28;20045;-70
2022/01/18 00:04:17;;;;;;;32.20;10.18;;;;;;;11.65;60.12;103671.13;5054945;28;20402;-70
2022/01/18 00:06:48;;;;;;;39.78;10.13;;;;;;;11.64;60.34;103674.75;5057240;28;20037;-69
2022/01/18 00:09:18;;;;;;;28.65;9.02;;;;;;;11.61;60.18;103677.53;5057808;28;20041;-69
2022/01/18 00:11:51;;;;;;;36.05;10.02;;;;;;;11.60;60.34;103679.34;5055201;28;20140;-70
2022/01/18 00:14:41;;;;;;;42.08;10.27;;;;;;;11.58;60.20;103677.63;5053508;28;20445;-70
2022/01/18 00:17:24;;;;;;;28.98;9.43;;;;;;;11.55;60.22;103685.78;5053430;28;20118;-69
2022/01/18 00:19:56;;;;;;;32.88;10.18;;;;;;;11.52;60.16;103683.19;5053319;28;20041;-70
2022/01/18 00:22:26;;;;;;;40.40;10.27;;;;;;;11.52;60.48;103686.75;5082259;28;20121;-71
2022/01/18 00:24:53;;;;;;;32.65;9.38;;;;;;;11.53;60.21;103685.84;5033167;28;20065;-70
2022/01/18 00:27:26;;;;;;;28.58;9.20;;;;;;;11.53;60.23;103679.56;5034263;28;20037;-70
2022/01/18 00:35:06;;;;;;;31.20;9.88;;;;;;;11.50;60.42;103688.63;5034135;28;20049;-70
2022/01/18 00:37:36;;;;;;;35.85;10.93;;;;;;;11.50;60.32;103695.81;5047651;28;20059;-70
2022/01/18 00:40:04;;;;;;;33.42;9.93;;;;;;;11.46;60.55;103695.03;5054135;28;20044;-70
2022/01/18 00:42:32;;;;;;;32.67;9.82;;;;;;;11.39;60.39;103690.75;5052795;28;20391;-69
2022/01/18 00:44:59;;;;;;;32.35;9.85;;;;;;;11.34;60.47;103700.75;5054023;28;20037;-69
2022/01/18 00:47:26;;;;;;;40.72;10.55;;;;;;;11.33;60.55;103696.31;5052924;28;20455;-71
2022/01/18 00:50:01;;;;;;;33.05;10.48;;;;;;;11.32;60.48;103689.16;5053569;28;20037;-70
2022/01/18 00:52:31;;;;;;;29.23;10.18;;;;;;;11.31;60.70;103699.03;5053846;28;20403;-70
2022/01/18 00:55:00;;;;;;;35.17;10.35;;;;;;;11.32;60.77;103703.50;5053259;28;20533;-70
2022/01/18 00:57:27;;;;;;;32.47;10.18;;;;;;;11.32;60.47;103706.19;5053537;28;20087;-70
2022/01/18 00:59:54;;;;;;;36.03;10.85;;;;;;;11.33;60.79;103702.56;5053863;28;20044;-70
2022/01/18 01:02:21;;;;;;;30.70;10.77;;;;;;;11.35;60.66;103703.41;5053098;28;20075;-70
2022/01/18 01:04:48;;;;;;;34.28;11.93;;;;;;;11.36;60.77;103698.91;5053742;28;20102;-70
2022/01/18 01:07:21;;;;;;;37.78;10.88;;;;;;;11.38;60.67;103697.06;5053313;28;20041;-70
2022/01/18 01:09:49;;;;;;;25.35;9.75;;;;;;;11.35;60.66;103702.53;5033376;28;20471;-71
2022/01/18 01:12:18;;;;;;;32.17;10.52;;;;;;;11.36;60.61;103704.28;5032213;28;20392;-70
2022/01/18 01:14:48;;;;;;;32.47;10.50;;;;;;;11.35;60.67;103705.22;5033509;28;20041;-70
2022/01/18 01:32:11;;;;;;;36.53;11.30;;;;;;;11.33;60.69;103702.56;5053236;28;20112;-70
2022/01/18 01:46:42;;;;;;;32.47;12.23;;;;;;;11.24;60.71;103697.47;5052867;28;20445;-69
2022/01/18 01:49:13;;;;;;;36.63;12.45;;;;;;;11.24;60.96;103697.47;5052993;28;20041;-70
2022/01/18 01:51:43;;;;;;;40.35;11.85;;;;;;;11.21;60.81;103696.66;5053293;28;20071;-69
2022/01/18 01:54:12;;;;;;;39.30;11.57;;;;;;;11.21;60.82;103702.03;5052868;28;20049;-68
2022/01/18 01:56:38;;;;;;;39.65;9.98;;;;;;;11.21;60.97;103702.91;5052853;28;20556;-70
2022/01/18 01:59:06;;;;;;;24.52;10.30;;;;;;;11.22;61.04;103701.13;5052857;28;20048;-70
2022/01/18 02:01:41;;;;;;;30.80;11.63;;;;;;;11.22;60.96;103706.50;5052929;28;20052;-70
2022/01/18 02:04:09;;;;;;;31.92;10.65;;;;;;;11.23;61.01;103702.88;5053010;28;20374;-70
2022/01/18 02:06:35;;;;;;;33.28;11.25;;;;;;;11.25;61.10;103698.34;5052934;28;20040;-70
2022/01/18 02:09:03;;;;;;;24.17;10.18;;;;;;;11.26;61.23;103698.28;5051373;28;20041;-70
2022/01/18 02:11:29;;;;;;;28.40;10.27;;;;;;;11.27;61.26;103710.81;5052784;28;20037;-70
2022/01/18 02:13:57;;;;;;;32.47;11.75;;;;;;;11.28;61.10;103709.00;5054136;28;20041;-70
2022/01/18 02:21:54;;;;;;;36.15;11.88;;;;;;;11.29;61.20;103700.00;5055424;28;20059;-70
2022/01/18 02:24:22;;;;;;;28.48;10.70;;;;;;;11.27;60.96;103697.38;5055322;28;20051;-69
2022/01/18 02:26:49;;;;;;;30.80;11.65;;;;;;;11.26;61.13;103698.28;5055352;28;20048;-69
2022/01/18 02:29:16;;;;;;;29.45;11.55;;;;;;;11.26;61.22;103694.72;5056231;28;20041;-68
2022/01/18 02:31:43;;;;;;;28.92;11.30;;;;;;;11.26;61.16;103698.28;5056334;28;20120;-69
2022/01/18 02:34:17;;;;;;;33.92;11.15;;;;;;;11.27;61.05;103699.19;5055898;28;20045;-69
2022/01/18 02:36:44;;;;;;;35.30;12.40;;;;;;;11.26;61.40;103698.28;5056761;28;20056;-70
2022/01/18 02:39:17;;;;;;;32.30;12.15;;;;;;;11.27;61.23;103700.06;5056185;28;20045;-69
2022/01/18 02:41:51;;;;;;;35.72;11.93;;;;;;;11.27;61.27;103694.69;5056283;28;20490;-69
2022/01/18 02:44:17;;;;;;;36.15;11.80;;;;;;;11.27;61.19;103700.06;5056216;28;20479;-70
2022/01/18 02:46:44;;;;;;;29.60;11.82;;;;;;;11.27;61.23;103702.75;5058260;28;20053;-69
2022/01/18 02:49:13;;;;;;;32.88;11.18;;;;;;;11.27;61.04;103686.59;5055954;28;20520;-69
2022/01/18 02:51:39;;;;;;;27.05;11.27;;;;;;;11.27;61.14;103691.09;5055977;28;20401;-70
2022/01/18 02:54:09;;;;;;;35.38;12.30;;;;;;;11.28;61.19;103691.06;5054937;28;20443;-70
2022/01/18 02:56:47;;;;;;;25.42;11.07;;;;;;;11.28;61.08;103687.50;5055734;28;20080;-69
2022/01/18 03:05:10;;;;;;;28.05;12.23;;;;;;;11.22;61.13;103693.94;5043423;28;20033;-70
2022/01/18 03:07:37;;;;;;;29.02;11.32;;;;;;;11.21;61.11;103685.91;5054029;28;20048;-69
2022/01/18 03:10:06;;;;;;;29.23;11.88;;;;;;;11.20;61.27;103694.91;5054205;28;20057;-69
2022/01/18 03:12:32;;;;;;;34.65;12.15;;;;;;;11.20;61.13;103693.09;5055750;28;20049;-70
2022/01/18 03:14:59;;;;;;;41.63;13.02;;;;;;;11.19;61.21;103699.41;5055806;28;20037;-70
2022/01/18 03:17:26;;;;;;;42.97;12.63;;;;;;;11.20;61.17;103694.91;5054075;28;20037;-70
2022/01/18 03:19:52;;;;;;;37.90;14.02;;;;;;;11.19;61.37;103701.19;5055404;28;20401;-71
2022/01/18 03:22:19;;;;;;;38.80;12.45;;;;;;;11.18;61.35;103708.38;5055375;28;20073;-70
2022/01/18 03:24:52;;;;;;;37.00;12.60;;;;;;;11.19;61.29;103709.28;5053305;28;20037;-70
2022/01/18 03:30:06;;;;;;;28.92;11.98;;;;;;;11.17;61.35;103712.00;5035524;28;20509;-70
2022/01/18 03:32:34;;;;;;;28.73;12.50;;;;;;;11.16;61.42;103703.97;5035239;28;20091;-70
2022/01/18 03:35:01;;;;;;;35.80;12.65;;;;;;;11.16;61.46;103706.66;5035231;28;20069;-69
2022/01/18 03:37:27;;;;;;;32.55;12.02;;;;;;;11.16;61.47;103701.28;5035121;28;20047;-70
2022/01/18 03:39:57;;;;;;;33.88;13.18;;;;;;;11.16;61.45;103710.25;5034284;28;20040;-70
2022/01/18 03:45:03;;;;;;;35.38;12.30;;;;;;;11.17;61.40;103706.63;5053815;28;20136;-71
2022/01/18 03:47:34;;;;;;;36.40;11.68;;;;;;;11.18;61.53;103705.69;5054176;28;20434;-70
2022/01/18 03:50:01;;;;;;;40.15;13.32;;;;;;;11.17;61.44;103705.75;5055059;28;20044;-70
2022/01/18 03:52:28;;;;;;;32.88;14.00;;;;;;;11.16;61.51;103707.56;5054848;28;20071;-70
2022/01/18 03:54:55;;;;;;;43.33;13.20;;;;;;;11.14;61.55;103710.25;5055050;28;20119;-71
2022/01/18 03:57:22;;;;;;;36.28;12.75;;;;;;;11.12;61.44;103711.22;5054613;28;20055;-69
2022/01/18 03:59:50;;;;;;;42.45;13.43;;;;;;;11.10;61.40;103713.94;5054238;28;20541;-70
2022/01/18 04:02:16;;;;;;;36.85;14.10;;;;;;;11.08;61.59;103710.41;5054882;28;20041;-70
2022/01/18 04:04:43;;;;;;;48.65;13.98;;;;;;;11.09;61.66;103708.63;5055007;28;20076;-69
2022/01/18 04:07:10;;;;;;;40.58;14.45;;;;;;;11.08;61.76;103713.09;5054731;28;20037;-70
2022/01/18 04:09:37;;;;;;;43.85;13.23;;;;;;;11.09;61.67;103727.44;5053193;28;20482;-70
2022/01/18 04:12:05;;;;;;;48.03;12.98;;;;;;;11.09;61.76;103736.38;5054520;28;20041;-70
2022/01/18 04:14:31;;;;;;;42.63;13.93;;;;;;;11.09;61.71;103731.00;5054457;28;20437;-69
2022/01/18 04:28:23;;;;;;;59.20;16.17;;;;;;;11.05;61.71;103734.72;5052812;28;20053;-69
2022/01/18 04:30:50;;;;;;;59.08;16.55;;;;;;;11.04;61.66;103737.44;5052652;28;20144;-70
2022/01/18 04:33:18;;;;;;;56.67;16.70;;;;;;;11.05;61.78;103736.50;5049757;28;20045;-70
2022/01/18 04:35:45;;;;;;;63.70;17.77;;;;;;;11.03;61.92;103731.19;5033894;28;20047;-70
2022/01/18 04:38:12;;;;;;;80.55;17.67;;;;;;;11.01;61.83;103733.03;5033679;28;20052;-69
2022/01/18 04:40:42;;;;;;;67.43;17.75;;;;;;;11.00;61.83;103731.25;5036479;28;20042;-70
2022/01/18 04:43:17;;;;;;;63.85;18.35;;;;;;;11.00;62.00;103725.88;5054024;28;20494;-70
2022/01/18 04:48:31;;;;;;;56.50;15.63;;;;;;;11.02;61.82;103723.16;5053584;28;20044;-69
2022/01/18 04:51:06;;;;;;;73.28;19.15;;;;;;;11.02;61.97;103715.09;5053900;28;20041;-70
2022/01/18 04:53:44;;;;;;;57.10;17.08;;;;;;;11.05;61.94;103715.00;5053502;28;20059;-70
2022/01/18 04:56:16;;;;;;;58.33;16.60;;;;;;;11.04;62.06;103716.81;5052336;28;20102;-70
2022/01/18 04:58:42;;;;;;;52.03;16.27;;;;;;;11.04;62.06;103719.50;5053717;28;20503;-70
2022/01/18 05:01:10;;;;;;;50.90;15.88;;;;;;;11.03;61.70;103725.81;5053632;28;20045;-70
2022/01/18 05:03:37;;;;;;;59.22;16.23;;;;;;;11.04;62.25;103726.69;5053647;28;20482;-70
2022/01/18 05:06:10;;;;;;;52.30;16.30;;;;;;;11.02;62.02;103744.66;5053433;28;20041;-69
2022/01/18 05:08:39;;;;;;;55.65;16.83;;;;;;;11.00;62.21;103746.50;5053439;28;20045;-69
2022/01/18 05:11:07;;;;;;;56.65;16.77;;;;;;;10.97;62.15;103751.97;5053468;28;20379;-70
2022/01/18 05:21:31;;;;;;;65.70;18.23;;;;;;;10.93;62.28;103750.28;5053378;28;20063;-70
2022/01/18 05:23:58;;;;;;;57.92;17.77;;;;;;;10.91;62.40;103753.03;5052263;28;20051;-69
2022/01/18 05:26:26;;;;;;;63.35;20.55;;;;;;;10.88;62.35;103746.84;5053214;28;20040;-70
2022/01/18 05:28:52;;;;;;;69.13;20.67;;;;;;;10.88;62.44;103742.34;5053180;28;20121;-69
2022/01/18 05:31:19;;;;;;;77.97;19.77;;;;;;;10.87;62.26;103753.13;5052859;28;20045;-70
2022/01/18 05:33:53;;;;;;;67.70;19.02;;;;;;;10.86;62.46;103743.31;5053246;28;20087;-70
2022/01/18 05:36:20;;;;;;;77.13;18.73;;;;;;;10.86;62.40;103746.88;5053315;28;20090;-70
2022/01/18 05:38:47;;;;;;;67.30;19.83;;;;;;;10.86;62.48;103744.19;5052890;28;20049;-70
2022/01/18 05:41:14;;;;;;;59.35;20.05;;;;;;;10.83;62.27;103741.59;5053060;28;20061;-69
2022/01/18 05:43:41;;;;;;;75.63;21.73;;;;;;;10.85;62.62;103736.16;5053292;28;20041;-70
2022/01/18 05:46:07;;;;;;;68.40;21.50;;;;;;;10.82;62.33;103737.13;5052112;28;20041;-70
2022/01/18 05:48:34;;;;;;;85.53;23.48;;;;;;;10.81;62.72;103733.56;5055353;28;20109;-69
2022/01/18 05:51:01;;;;;;;62.20;19.65;;;;;;;10.80;62.60;103725.53;5057335;28;20041;-69
2022/01/18 05:53:30;;;;;;;62.38;19.30;;;;;;;10.80;62.57;103723.72;5057275;28;20402;-70
2022/01/18 05:55:58;;;;;;;76.45;20.70;;;;;;;10.82;62.71;103729.94;5055301;28;20098;-70
2022/01/18 05:58:25;;;;;;;68.28;23.02;;;;;;;10.83;62.78;103729.03;5056867;28;20047;-70
2022/01/18 06:00:53;;;;;;;70.25;22.42;;;;;;;10.83;62.78;103731.72;5057108;28;20502;-70
2022/01/18 06:03:31;;;;;;;78.10;21.80;;;;;;;10.84;62.79;103735.28;5039500;28;20447;-69
2022/01/18 06:08:43;;;;;;;86.15;23.70;;;;;;;10.83;62.70;103737.09;5058224;28;20132;-69
2022/01/18 06:11:10;;;;;;;85.57;22.85;;;;;;;10.83;62.75;103742.47;5053449;28;20490;-70
2022/01/18 06:13:37;;;;;;;68.68;22.27;;;;;;;10.82;62.71;103739.81;5048859;28;20037;-69
2022/01/18 06:16:05;;;;;;;62.38;21.63;;;;;;;10.81;62.90;103751.50;5055156;28;20041;-70
2022/01/18 06:18:32;;;;;;;88.85;23.00;;;;;;;10.81;62.84;103749.69;5036646;28;20041;-70
2022/01/18 06:20:59;;;;;;;75.28;22.27;;;;;;;10.81;62.89;103757.75;5051049;28;20144;-70
2022/01/18 06:23:25;;;;;;;59.38;20.15;;;;;;;10.81;62.61;103755.06;5050870;28;20044;-70
2022/01/18 06:25:52;;;;;;;56.55;20.98;;;;;;;10.81;62.87;103752.38;5067665;28;20112;-69
2022/01/18 06:28:20;;;;;;;51.50;20.65;;;;;;;10.81;62.89;103757.75;5050256;28;20052;-71
2022/01/18 06:30:47;;;;;;;76.88;22.27;;;;;;;10.81;62.72;103756.88;5036448;28;20056;-71
2022/01/18 06:33:14;;;;;;;79.63;22.08;;;;;;;10.81;62.82;103754.19;5050969;28;20148;-71
2022/01/18 06:35:41;;;;;;;64.65;21.83;;;;;;;10.78;62.82;103746.19;5056064;28;20053;-71
2022/01/18 06:38:08;;;;;;;53.67;20.15;;;;;;;10.78;62.70;103755.16;5056089;28;20128;-71
2022/01/18 06:40:35;;;;;;;95.95;24.63;;;;;;;10.77;62.85;103753.38;5056236;28;20483;-71
2022/01/18 06:43:03;;;;;;;65.82;22.17;;;;;;;10.75;62.73;103757.91;5056360;28;20047;-71
2022/01/18 06:45:32;;;;;;;74.85;23.15;;;;;;;10.73;63.01;103754.38;5054460;28;20548;-70
2022/01/18 06:47:59;;;;;;;74.28;23.08;;;;;;;10.70;62.91;103748.19;5054477;28;20049;-71
2022/01/18 06:50:26;;;;;;;66.53;21.63;;;;;;;10.67;62.80;103749.16;5057710;28;20067;-70
2022/01/18 06:52:54;;;;;;;67.13;20.05;;;;;;;10.67;63.02;103743.78;5055676;28;20530;-70
2022/01/18 06:55:21;;;;;;;97.10;25.35;;;;;;;10.68;62.99;103736.59;5054625;28;20037;-71
2022/01/18 06:57:47;;;;;;;63.15;21.92;;;;;;;10.66;63.09;103747.41;5054312;28;20041;-71
2022/01/18 07:00:14;;;;;;;67.95;24.58;;;;;;;10.68;63.08;103755.41;5053750;28;20409;-70
2022/01/18 07:02:42;;;;;;;86.50;25.85;;;;;;;10.69;62.98;103755.38;5069848;28;20091;-71
2022/01/18 07:05:11;;;;;;;64.80;22.52;;;;;;;10.71;63.00;103749.97;5034659;28;20061;-71
2022/01/18 07:07:39;;;;;;;70.07;23.92;;;;;;;10.72;63.00;103751.72;5039721;28;20040;-71
2022/01/18 07:10:07;;;;;;;65.97;23.42;;;;;;;10.73;63.13;103761.56;5057162;28;20053;-71
2022/01/18 07:12:34;;;;;;;70.35;21.70;;;;;;;10.73;63.02;103751.69;5048141;28;20041;-71
2022/01/18 07:15:06;;;;;;;54.70;20.52;;;;;;;10.74;63.03;103758.84;5035637;28;20033;-70
2022/01/18 07:17:40;;;;;;;61.80;20.58;;;;;;;10.75;63.01;103770.47;5053340;28;20136;-71
2022/01/18 07:20:08;;;;;;;53.80;20.23;;;;;;;10.73;63.05;103762.44;5052429;28;20080;-70
2022/01/18 07:22:34;;;;;;;54.38;20.10;;;;;;;10.70;62.92;103773.28;5054376;28;20047;-69
2022/01/18 07:25:02;;;;;;;62.38;23.67;;;;;;;10.69;62.87;103766.13;5055335;28;20491;-70
2022/01/18 07:27:29;;;;;;;50.63;20.15;;;;;;;10.68;63.02;103767.06;5055285;28;20124;-70
2022/01/18 07:29:56;;;;;;;55.53;19.73;;;;;;;10.69;63.04;103763.44;5053858;28;20491;-69
2022/01/18 07:32:22;;;;;;;57.22;20.85;;;;;;;10.69;63.09;103776.88;5055268;28;20518;-69
2022/01/18 07:34:52;;;;;;;50.92;20.05;;;;;;;10.69;63.01;103774.19;5048415;28;20432;-70
2022/01/18 07:37:20;;;;;;;50.22;20.55;;;;;;;10.68;63.14;103775.13;5045641;28;20060;-69
2022/01/18 07:39:49;;;;;;;62.03;21.60;;;;;;;10.69;62.91;103781.38;5054544;28;20124;-68
2022/01/18 07:42:20;;;;;;;57.42;20.08;;;;;;;10.66;63.01;103781.44;5055029;28;20047;-68
2022/01/18 07:44:47;;;;;;;52.00;20.48;;;;;;;10.65;63.03;103783.25;5052627;28;20107;-68
2022/01/18 07:47:13;;;;;;;57.28;21.92;;;;;;;10.66;63.11;103779.66;5054910;28;20077;-69
2022/01/18 07:49:44;;;;;;;49.97;21.00;;;;;;;10.66;63.16;103776.06;5050383;28;20053;-69
2022/01/18 07:52:10;;;;;;;55.70;22.15;;;;;;;10.66;63.09;103785.03;5055040;28;20047;-69
2022/01/18 07:54:37;;;;;;;65.43;21.80;;;;;;;10.67;63.02;103791.28;5054769;28;20047;-68
2022/01/18 07:57:08;;;;;;;57.58;22.08;;;;;;;10.66;63.03;103794.88;5054697;28;20055;-68
2022/01/18 07:59:34;;;;;;;64.90;21.35;;;;;;;10.67;63.20;103791.28;5054784;28;20079;-69
2022/01/18 08:02:01;;;;;;;59.03;20.70;;;;;;;10.66;63.05;103798.47;5053738;28;20095;-68
2022/01/18 08:04:28;;;;;;;59.42;22.35;;;;;;;10.66;63.20;103793.09;5054707;28;20045;-68
2022/01/18 08:06:55;;;;;;;64.60;22.55;;;;;;;10.67;63.08;103786.78;5054594;28;20055;-68
2022/01/18 08:09:22;;;;;;;76.28;23.85;;;;;;;10.65;63.12;103787.75;5054721;28;20072;-68
2022/01/18 08:11:51;;;;;;;69.85;23.20;;;;;;;10.65;63.14;103785.94;5053224;28;20495;-68
2022/01/18 08:14:19;;;;;;;57.65;21.45;;;;;;;10.65;63.11;103794.00;5046950;28;20061;-68
2022/01/18 08:16:49;;;;;;;62.38;23.83;;;;;;;10.66;63.40;103785.03;5034466;28;20041;-69
2022/01/18 08:19:17;;;;;;;81.82;25.27;;;;;;;10.67;63.15;103791.28;5047226;28;20069;-68
2022/01/18 08:21:44;;;;;;;76.45;26.85;;;;;;;10.67;63.27;103784.09;5054307;28;20068;-68
2022/01/18 08:24:11;;;;;;;81.32;24.42;;;;;;;10.68;63.25;103793.06;5052674;28;20415;-69
2022/01/18 08:26:38;;;;;;;74.07;23.17;;;;;;;10.68;63.37;103783.19;5053068;28;20041;-68
2022/01/18 08:29:05;;;;;;;79.43;24.13;;;;;;;10.67;63.48;103789.47;5054058;28;20033;-69
2022/01/18 08:31:31;;;;;;;65.78;22.38;;;;;;;10.67;63.26;103788.59;5053942;28;20071;-69
2022/01/18 08:33:58;;;;;;;64.60;23.60;;;;;;;10.66;63.42;103789.50;5054120;28;20094;-68
2022/01/18 08:36:25;;;;;;;73.03;24.08;;;;;;;10.66;63.46;103785.03;5053193;28;20052;-68
2022/01/18 08:38:53;;;;;;;99.55;26.55;;;;;;;10.68;63.45;103776.91;5053879;28;20037;-67
2022/01/18 08:41:20;;;;;;;84.43;23.88;;;;;;;10.68;63.23;103791.25;5052746;28;20044;-71
2022/01/18 08:43:48;;;;;;;82.50;23.42;;;;;;;10.68;63.48;103791.25;5053832;28;20053;-70
2022/01/18 08:46:16;;;;;;;85.57;23.70;;;;;;;10.68;63.45;103788.56;5053547;28;20041;-70
2022/01/18 08:48:43;;;;;;;81.50;23.58;;;;;;;10.69;63.56;103789.44;5053837;28;20041;-70
2022/01/18 08:51:09;;;;;;;72.05;21.95;;;;;;;10.69;63.66;103787.63;5053677;28;20037;-70
2022/01/18 08:53:37;;;;;;;66.30;21.48;;;;;;;10.70;63.63;103791.22;5053903;28;20044;-70
2022/01/18 08:56:07;;;;;;;75.93;22.10;;;;;;;10.71;63.81;103790.28;5053471;28;20476;-70
2022/01/18 08:58:34;;;;;;;73.18;23.45;;;;;;;10.71;63.72;103796.53;5053282;28;20048;-70
2022/01/18 09:01:02;;;;;;;66.03;22.45;;;;;;;10.74;63.60;103796.47;5053681;28;20509;-70
2022/01/18 09:03:30;;;;;;;63.47;22.35;;;;;;;10.74;63.56;103796.47;5052276;28;20402;-70
2022/01/18 09:05:57;;;;;;;74.57;21.60;;;;;;;10.75;63.80;103794.66;5053335;28;20037;-70
2022/01/18 09:08:24;;;;;;;64.05;21.45;;;;;;;10.76;63.92;103789.25;5053282;28;20089;-70
2022/01/18 09:10:52;;;;;;;53.65;21.63;;;;;;;10.80;63.52;103799.00;5053621;28;20051;-69
2022/01/18 09:13:22;;;;;;;46.30;20.13;;;;;;;10.83;63.70;103800.72;5053428;28;20128;-70
2022/01/18 09:15:50;;;;;;;60.40;20.33;;;;;;;10.85;63.85;103806.94;5052255;28;20049;-70
2022/01/18 09:18:17;;;;;;;51.63;21.05;;;;;;;10.86;63.60;103803.34;5051535;28;20083;-71
2022/01/18 09:20:44;;;;;;;49.90;19.88;;;;;;;10.88;63.83;103806.88;5053524;28;20374;-68
2022/01/18 09:23:12;;;;;;;41.28;19.83;;;;;;;10.89;63.78;103800.56;5052050;28;20076;-70
2022/01/18 09:25:39;;;;;;;44.33;18.77;;;;;;;10.90;63.76;103805.03;5053285;28;20073;-70
2022/01/18 09:28:06;;;;;;;53.35;20.13;;;;;;;10.91;63.41;103800.53;5053096;28;20486;-69
2022/01/18 09:30:35;;;;;;;49.47;21.40;;;;;;;10.92;63.85;103802.31;5052432;28;20084;-70
2022/01/18 09:33:06;;;;;;;41.47;19.23;;;;;;;10.92;63.77;103799.63;5053445;28;20132;-70
2022/01/18 09:35:37;;;;;;;56.00;21.05;;;;;;;10.93;63.80;103804.94;5053178;28;20548;-67
2022/01/18 09:38:04;;;;;;;50.13;21.45;;;;;;;10.94;63.74;103804.03;5053064;28;20075;-69
2022/01/18 09:40:37;;;;;;;47.42;19.75;;;;;;;10.95;64.00;103812.97;5053007;28;20449;-68
2022/01/18 09:43:11;;;;;;;50.75;20.55;;;;;;;10.97;63.89;103816.50;5051900;28;20053;-69
2022/01/18 09:45:41;;;;;;;46.22;19.15;;;;;;;10.99;63.90;103814.66;5053361;28;20076;-69
2022/01/18 09:48:09;;;;;;;53.08;21.17;;;;;;;11.01;63.90;103811.00;5052650;28;20083;-69
2022/01/18 09:50:38;;;;;;;52.28;19.85;;;;;;;11.02;63.98;103822.66;5053077;28;20041;-69
2022/01/18 09:53:09;;;;;;;44.63;18.73;;;;;;;11.02;63.96;103828.03;5053406;28;20457;-69
2022/01/18 09:55:37;;;;;;;43.63;18.30;;;;;;;11.03;63.68;103827.09;5053026;28;20064;-69
2022/01/18 09:58:08;;;;;;;47.53;19.70;;;;;;;11.04;63.97;103827.06;5052629;28;20059;-69
2022/01/18 10:00:40;;;;;;;40.70;18.70;;;;;;;11.07;63.91;103828.81;5051868;28;20057;-69
2022/01/18 10:03:27;;;;;;;45.45;18.55;;;;;;;11.11;63.95;103834.06;5053266;28;20056;-69
2022/01/18 10:05:55;;;;;;;45.60;18.92;;;;;;;11.14;63.91;103839.34;5051499;28;20060;-70
2022/01/18 10:08:23;;;;;;;53.40;20.92;;;;;;;11.17;63.89;103837.53;5051361;28;20041;-69
2022/01/18 10:10:56;;;;;;;43.53;20.83;;;;;;;11.20;63.86;103842.84;5051647;28;20081;-69
2022/01/18 10:13:31;;;;;;;46.70;20.30;;;;;;;11.23;63.91;103837.38;5052870;28;20045;-69
2022/01/18 10:16:03;;;;;;;45.95;19.40;;;;;;;11.26;64.05;103834.63;5051629;28;20076;-69
2022/01/18 10:18:47;;;;;;;42.92;19.30;;;;;;;11.29;63.83;103838.09;5052527;28;20163;-69
2022/01/18 10:21:44;;;;;;;40.10;18.15;;;;;;;11.29;63.93;103835.41;5051702;28;20110;-69
2022/01/18 10:24:15;;;;;;;48.47;18.60;;;;;;;11.34;64.02;103838.88;5052698;28;20505;-69
2022/01/18 10:26:44;;;;;;;43.65;18.98;;;;;;;11.34;64.10;103838.00;5052755;28;20494;-70
2022/01/18 10:29:12;;;;;;;40.85;18.45;;;;;;;11.36;63.77;103833.44;5052294;28;20049;-69
2022/01/18 10:31:57;;;;;;;37.03;17.05;;;;;;;11.39;63.70;103836.94;5052314;28;20032;-71
2022/01/18 10:37:05;;;;;;;33.20;17.80;;;;;;;11.46;63.79;103832.28;5055125;28;20055;-68
2022/01/18 10:39:47;;;;;;;40.30;16.30;;;;;;;11.51;63.91;103834.84;5056032;28;20053;-69
2022/01/18 10:42:23;;;;;;;43.35;16.38;;;;;;;11.53;63.58;103819.53;5055689;28;20077;-69
2022/01/18 10:45:28;;;;;;;31.48;15.40;;;;;;;11.55;63.86;103820.38;5056197;28;20492;-67
2022/01/18 10:47:59;;;;;;;29.45;14.88;;;;;;;11.58;63.76;103815.78;5055935;28;20120;-69
2022/01/18 10:50:32;;;;;;;32.90;14.98;;;;;;;11.59;63.57;103811.28;5055912;28;20449;-69
2022/01/18 10:53:11;;;;;;;29.27;13.93;;;;;;;11.61;63.73;103809.44;5055949;28;20486;-69
2022/01/18 10:55:38;;;;;;;25.95;12.80;;;;;;;11.63;63.58;103810.28;5055931;28;20128;-69
2022/01/18 10:58:13;;;;;;;28.15;15.30;;;;;;;11.64;63.53;103809.34;5055571;28;20049;-70
2022/01/18 11:00:40;;;;;;;27.60;13.43;;;;;;;11.66;63.58;103805.69;5054520;28;20045;-69
2022/01/18 11:03:07;;;;;;;29.15;14.57;;;;;;;11.69;63.72;103808.28;5055958;28;20044;-69
2022/01/18 11:05:41;;;;;;;30.02;14.50;;;;;;;11.73;63.55;103809.06;5056942;28;20049;-69
2022/01/18 11:08:08;;;;;;;33.10;15.55;;;;;;;11.75;63.49;103807.22;5055388;28;20037;-69
2022/01/18 11:10:38;;;;;;;31.80;15.55;;;;;;;11.79;63.48;103798.16;5055152;28;20073;-69
2022/01/18 11:13:26;;;;;;;28.83;13.30;;;;;;;11.83;63.43;103794.44;5054169;28;20411;-69
2022/01/18 11:16:03;;;;;;;28.40;14.35;;;;;;;11.85;63.41;103797.97;5053655;28;20044;-69
2022/01/18 11:18:35;;;;;;;30.15;14.23;;;;;;;11.89;63.47;103785.31;5033848;28;20576;-69
2022/01/18 11:21:05;;;;;;;30.52;13.98;;;;;;;11.90;63.32;103784.41;5035449;28;20037;-69
2022/01/18 11:23:34;;;;;;;39.20;15.90;;;;;;;11.91;63.42;103778.09;5035421;28;20494;-68
2022/01/18 11:26:01;;;;;;;33.05;14.75;;;;;;;11.92;63.42;103775.34;5067483;28;20441;-69
2022/01/18 11:28:29;;;;;;;32.55;14.80;;;;;;;11.94;63.60;103778.88;5033759;28;20443;-68
2022/01/18 11:30:57;;;;;;;25.95;13.90;;;;;;;11.94;63.32;103773.50;5053225;28;20052;-69
2022/01/18 11:33:27;;;;;;;30.20;13.98;;;;;;;11.98;63.29;103777.88;5054746;28;20039;-69
2022/01/18 11:36:02;;;;;;;27.50;14.48;;;;;;;12.01;63.62;103774.19;5055407;28;20041;-68
2022/01/18 11:38:33;;;;;;;33.60;14.23;;;;;;;12.07;63.25;103765.94;5054294;28;20041;-68
2022/01/18 11:41:06;;;;;;;32.92;14.32;;;;;;;12.12;63.39;103772.06;5055200;28;20041;-69
2022/01/18 11:43:40;;;;;;;32.80;15.63;;;;;;;12.17;63.37;103782.69;5054998;28;20070;-69
2022/01/18 11:46:36;;;;;;;39.08;15.45;;;;;;;12.15;63.15;103771.06;5054281;28;20043;-69
2022/01/18 11:49:08;;;;;;;29.85;14.98;;;;;;;12.20;63.02;103772.69;5034854;28;20030;-69
2022/01/18 11:51:47;;;;;;;30.38;14.88;;;;;;;12.22;63.13;103775.34;5034998;28;20507;-69
2022/01/18 11:54:37;;;;;;;34.17;15.10;;;;;;;12.20;62.95;103772.69;5035237;28;20045;-68
2022/01/18 11:57:19;;;;;;;34.17;14.63;;;;;;;12.21;62.84;103777.16;5035189;28;20048;-69
2022/01/18 11:59:58;;;;;;;31.02;14.18;;;;;;;12.23;62.89;103780.69;5033663;28;20064;-68
2022/01/18 12:02:26;;;;;;;36.88;16.65;;;;;;;12.24;63.07;103777.06;5038424;28;20045;-69
2022/01/18 12:05:04;;;;;;;33.60;15.60;;;;;;;12.26;62.86;103780.59;5033771;28;20454;-68
2022/01/18 12:07:34;;;;;;;36.67;15.60;;;;;;;12.31;62.94;103777.75;5033480;28;20050;-69
2022/01/18 12:10:02;;;;;;;34.22;15.52;;;;;;;12.36;63.11;103776.66;5033449;28;20499;-69
2022/01/18 12:12:41;;;;;;;37.60;16.67;;;;;;;12.37;62.98;103774.84;5039296;28;20124;-68
2022/01/18 12:15:17;;;;;;;38.95;16.33;;;;;;;12.39;62.89;103773.00;5054239;28;20472;-69
2022/01/18 12:17:56;;;;;;;39.60;16.95;;;;;;;12.41;62.68;103768.44;5052774;28;20048;-70
2022/01/18 12:20:32;;;;;;;46.45;17.75;;;;;;;12.44;63.03;103767.44;5054263;28;20045;-69
2022/01/18 12:23:12;;;;;;;;;;;;;;;12.44;62.86;103757.56;5053430;28;20155;-69
2022/01/18 12:26:21;;;;;;;40.55;16.67;;;;;;;12.50;62.60;103754.66;5052877;28;19928;-70
2022/01/18 12:32:03;;;;;;;34.40;13.98;;;;;;;12.47;62.46;103743.09;5052512;28;20087;-70
2022/01/18 12:34:41;;;;;;;37.50;14.35;;;;;;;12.47;62.61;103738.59;5054127;28;20068;-70
2022/01/18 12:37:07;;;;;;;30.50;13.57;;;;;;;12.48;62.34;103750.25;5052540;28;20067;-70
2022/01/18 12:39:49;;;;;;;28.23;12.20;;;;;;;12.46;62.49;103752.13;5039990;28;20124;-69
2022/01/18 12:44:20;;;;;;;33.88;13.48;;;;;;;12.52;62.63;103751.91;5053180;28;20395;-69